createdAt,value
2022-11-29T00:01:42.083Z,101183.94
2022-11-29T00:04:10.604Z,101197.22
2022-11-29T00:06:40.587Z,101185.09
2022-11-29T00:09:12.269Z,101184.06
2022-11-29T00:11:59.322Z,101190.28
2022-11-29T00:14:28.736Z,101179.94
2022-11-29T00:17:01.916Z,101193.88
2022-11-29T00:19:31.042Z,101188.50
2022-11-29T00:22:01.017Z,101184.16
2022-11-29T00:24:31.522Z,101194.63
2022-11-29T00:27:00.806Z,101187.72
2022-11-29T00:29:30.438Z,101186.63
2022-11-29T00:31:58.615Z,101195.53
2022-11-29T00:34:26.883Z,101185.22
2022-11-29T00:36:55.143Z,101186.97
2022-11-29T00:39:25.110Z,101182.38
2022-11-29T00:41:53.437Z,101184.31
2022-11-29T00:44:21.579Z,101179.94
2022-11-29T00:46:50.064Z,101184.22
2022-11-29T00:49:18.670Z,101183.91
2022-11-29T00:51:46.860Z,101183.38
2022-11-29T00:54:15.371Z,101177.84
2022-11-29T00:56:45.308Z,101183.59
2022-11-29T00:59:13.540Z,101190.28
2022-11-29T01:01:41.867Z,101179.72
2022-11-29T01:04:10.211Z,101184.13
2022-11-29T01:06:38.358Z,101183.44
2022-11-29T01:09:06.519Z,101187.81
2022-11-29T01:11:34.824Z,101181.59
2022-11-29T01:14:04.759Z,101194.66
2022-11-29T01:16:33.766Z,101181.94
2022-11-29T01:19:02.572Z,101187.09
2022-11-29T01:21:31.349Z,101182.72
2022-11-29T01:24:01.501Z,101179.84
2022-11-29T01:26:31.066Z,101180.88
2022-11-29T01:28:59.805Z,101195.03
2022-11-29T01:31:32.218Z,101188.88
2022-11-29T01:34:03.004Z,101192.41
2022-11-29T01:36:31.541Z,101187.06
2022-11-29T01:39:00.632Z,101194.09
2022-11-29T01:41:31.171Z,101189.31
2022-11-29T01:44:02.742Z,101191.38
2022-11-29T01:46:34.555Z,101190.28
2022-11-29T01:49:09.262Z,101194.09
2022-11-29T01:51:43.003Z,101185.81
2022-11-29T01:54:13.220Z,101183.41
2022-11-29T01:56:44.510Z,101179.47
2022-11-29T01:59:16.123Z,101182.00
2022-11-29T02:01:45.757Z,101183.66
2022-11-29T02:04:14.767Z,101181.81
2022-11-29T02:06:44.095Z,101181.19
2022-11-29T02:09:20.463Z,101183.09
2022-11-29T02:12:05.812Z,101183.53
2022-11-29T02:14:53.819Z,101174.78
2022-11-29T02:17:34.097Z,101183.72
2022-11-29T02:20:43.524Z,101189.56
2022-11-29T02:23:33.607Z,101189.91
2022-11-29T02:26:19.395Z,101187.81
2022-11-29T02:29:16.937Z,101191.72
2022-11-29T02:32:08.210Z,101187.81
2022-11-29T02:34:54.296Z,101193.44
2022-11-29T02:37:50.500Z,101191.47
2022-11-29T02:40:46.281Z,101193.19
2022-11-29T02:43:52.575Z,101188.97
2022-11-29T02:46:41.412Z,101194.41
2022-11-29T02:49:20.432Z,101190.50
2022-11-29T02:51:57.804Z,101186.97
2022-11-29T02:54:30.973Z,101190.22
2022-11-29T02:57:05.118Z,101193.75
2022-11-29T02:59:44.155Z,101200.00
2022-11-29T03:02:23.362Z,101195.66
2022-11-29T03:04:58.338Z,101204.59
2022-11-29T03:07:38.343Z,101207.25
2022-11-29T03:10:13.162Z,101209.72
2022-11-29T03:12:43.935Z,101202.97
2022-11-29T03:15:26.395Z,101211.81
2022-11-29T03:18:14.907Z,101208.34
2022-11-29T03:20:56.539Z,101212.56
2022-11-29T03:23:32.520Z,101221.25
2022-11-29T03:26:07.410Z,101211.28
2022-11-29T03:28:42.290Z,101217.09
2022-11-29T03:31:15.225Z,101214.97
2022-11-29T03:33:52.539Z,101221.38
2022-11-29T03:36:30.555Z,101220.34
2022-11-29T03:39:06.176Z,101219.38
2022-11-29T03:41:42.556Z,101210.06
2022-11-29T03:44:16.785Z,101212.78
2022-11-29T03:46:51.693Z,101216.16
2022-11-29T03:49:26.671Z,101225.47
2022-11-29T03:52:03.886Z,101220.63
2022-11-29T03:54:43.475Z,101225.00
2022-11-29T03:57:14.931Z,101223.44
2022-11-29T03:59:57.227Z,101225.19
2022-11-29T04:03:02.993Z,101226.97
2022-11-29T04:05:48.512Z,101234.25
2022-11-29T04:08:43.895Z,101236.84
2022-11-29T04:11:55.628Z,101239.19
2022-11-29T04:14:34.694Z,101234.38
2022-11-29T04:17:48.829Z,101244.72
2022-11-29T04:20:48.226Z,101246.56
2022-11-29T04:23:56.816Z,101242.06
2022-11-29T04:26:53.609Z,101235.19
2022-11-29T04:29:45.026Z,101248.03
2022-11-29T04:32:34.154Z,101248.16
2022-11-29T04:35:45.180Z,101245.63
2022-11-29T04:38:40.890Z,101251.53
2022-11-29T04:41:41.906Z,101246.09
2022-11-29T04:44:28.359Z,101240.97
2022-11-29T04:47:17.167Z,101240.31
2022-11-29T04:50:04.459Z,101249.63
2022-11-29T04:52:43.875Z,101254.16
2022-11-29T04:55:30.493Z,101256.00
2022-11-29T04:58:06.496Z,101251.59
2022-11-29T05:00:42.992Z,101252.56
2022-11-29T05:03:17.558Z,101254.44
2022-11-29T05:05:52.584Z,101257.16
2022-11-29T05:08:28.460Z,101253.47
2022-11-29T05:11:04.780Z,101259.50
2022-11-29T05:13:46.157Z,101269.22
2022-11-29T05:16:34.586Z,101267.34
2022-11-29T05:19:25.571Z,101270.91
2022-11-29T05:22:03.267Z,101269.94
2022-11-29T05:24:47.301Z,101272.84
2022-11-29T05:27:24.133Z,101282.28
2022-11-29T05:29:58.328Z,101283.34
2022-11-29T05:32:36.729Z,101281.56
2022-11-29T05:35:33.904Z,101300.16
2022-11-29T05:38:12.359Z,101296.13
2022-11-29T05:40:47.426Z,101298.09
2022-11-29T05:43:31.400Z,101300.81
2022-11-29T05:46:06.026Z,101314.78
2022-11-29T05:48:45.250Z,101301.66
2022-11-29T05:51:22.342Z,101313.06
2022-11-29T05:53:59.363Z,101320.84
2022-11-29T05:56:43.218Z,101319.31
2022-11-29T05:59:16.315Z,101322.69
2022-11-29T06:01:53.334Z,101330.56
2022-11-29T06:04:28.775Z,101327.91
2022-11-29T06:07:04.831Z,101327.09
2022-11-29T06:09:38.165Z,101331.31
2022-11-29T06:12:18.171Z,101333.09
2022-11-29T06:15:07.203Z,101340.28
2022-11-29T06:17:48.743Z,101337.31
2022-11-29T06:20:32.310Z,101342.72
2022-11-29T06:23:16.222Z,101346.97
2022-11-29T06:26:03.519Z,101347.91
2022-11-29T06:28:50.605Z,101351.44
2022-11-29T06:31:24.620Z,101350.47
2022-11-29T06:34:02.625Z,101351.56
2022-11-29T06:36:41.080Z,101352.44
2022-11-29T06:39:10.807Z,101357.44
2022-11-29T06:41:39.087Z,101354.09
2022-11-29T06:44:08.219Z,101352.38
2022-11-29T06:46:46.504Z,101358.28
2022-11-29T06:49:23.287Z,101357.50
2022-11-29T06:52:05.028Z,101360.09
2022-11-29T06:54:49.524Z,101369.59
2022-11-29T06:57:25.722Z,101365.22
2022-11-29T07:00:04.474Z,101379.13
2022-11-29T07:02:51.175Z,101379.97
2022-11-29T07:05:25.183Z,101384.44
2022-11-29T07:07:57.570Z,101381.69
2022-11-29T07:10:27.867Z,101387.00
2022-11-29T07:12:56.574Z,101387.69
2022-11-29T07:15:25.476Z,101391.22
2022-11-29T07:18:10.044Z,101394.88
2022-11-29T07:20:50.236Z,101388.63
2022-11-29T07:23:33.661Z,101390.19
2022-11-29T07:26:10.544Z,101391.97
2022-11-29T07:28:48.370Z,101394.50
2022-11-29T07:31:25.150Z,101404.41
2022-11-29T07:33:59.780Z,101409.50
2022-11-29T07:36:35.104Z,101410.56
2022-11-29T07:39:20.019Z,101401.81
2022-11-29T07:41:57.771Z,101416.44
2022-11-29T07:44:35.126Z,101419.13
2022-11-29T07:47:03.397Z,101416.50
2022-11-29T07:49:31.746Z,101414.44
2022-11-29T07:51:59.922Z,101423.50
2022-11-29T07:54:29.651Z,101426.88
2022-11-29T07:56:57.797Z,101430.97
2022-11-29T07:59:25.920Z,101435.50
2022-11-29T08:01:54.181Z,101430.28
2022-11-29T08:04:22.375Z,101431.88
2022-11-29T08:06:50.503Z,101432.06
2022-11-29T08:09:19.156Z,101428.53
2022-11-29T08:11:48.865Z,101427.56
2022-11-29T08:14:16.996Z,101428.41
2022-11-29T08:16:45.228Z,101437.03
2022-11-29T08:19:13.416Z,101432.63
2022-11-29T08:21:44.204Z,101433.50
2022-11-29T08:24:12.726Z,101430.88
2022-11-29T08:26:41.013Z,101435.94
2022-11-29T08:29:10.523Z,101437.03
2022-11-29T08:31:38.945Z,101442.28
2022-11-29T08:34:07.930Z,101441.19
2022-11-29T08:36:36.060Z,101438.41
2022-11-29T08:39:09.347Z,101433.16
2022-11-29T08:41:37.804Z,101435.81
2022-11-29T08:44:06.539Z,101437.72
2022-11-29T08:46:54.411Z,101435.78
2022-11-29T08:49:22.612Z,101429.66
2022-11-29T08:51:52.311Z,101439.38
2022-11-29T08:54:19.471Z,101432.50
2022-11-29T08:57:31.072Z,101435.09
2022-11-29T08:59:35.797Z,101433.00
2022-11-29T09:02:05.326Z,101445.38
2022-11-29T09:04:33.458Z,101436.69
2022-11-29T09:07:01.625Z,101454.19
2022-11-29T09:09:29.741Z,101448.75
2022-11-29T09:11:57.831Z,101448.56
2022-11-29T09:14:26.125Z,101445.78
2022-11-29T09:16:54.311Z,101457.38
2022-11-29T09:19:23.822Z,101457.38
2022-11-29T09:21:51.959Z,101462.66
2022-11-29T09:24:20.612Z,101452.31
2022-11-29T09:26:48.819Z,101450.03
2022-11-29T09:29:18.377Z,101446.78
2022-11-29T09:31:46.703Z,101456.16
2022-11-29T09:34:15.101Z,101452.97
2022-11-29T09:36:44.991Z,101456.91
2022-11-29T09:39:13.322Z,101453.72
2022-11-29T09:42:04.996Z,101462.50
2022-11-29T09:44:41.856Z,101456.34
2022-11-29T09:47:26.765Z,101463.97
2022-11-29T09:50:02.047Z,101457.13
2022-11-29T09:52:48.379Z,101459.72
2022-11-29T09:55:38.755Z,101460.34
2022-11-29T09:58:10.859Z,101447.72
2022-11-29T10:00:45.502Z,101454.75
2022-11-29T10:03:21.397Z,101458.69
2022-11-29T10:05:54.666Z,101452.44
2022-11-29T10:08:29.610Z,101456.75
2022-11-29T10:11:07.713Z,101452.59
2022-11-29T10:13:38.128Z,101449.66
2022-11-29T10:16:15.109Z,101450.94
2022-11-29T10:18:49.664Z,101447.88
2022-11-29T10:21:21.535Z,101451.91
2022-11-29T10:23:55.117Z,101450.53
2022-11-29T10:26:25.885Z,101458.75
2022-11-29T10:28:57.953Z,101456.78
2022-11-29T10:31:28.678Z,101445.75
2022-11-29T10:33:58.546Z,101451.72
2022-11-29T10:36:30.835Z,101447.16
2022-11-29T10:39:04.113Z,101451.47
2022-11-29T10:41:33.011Z,101455.06
2022-11-29T10:44:02.215Z,101459.03
2022-11-29T10:46:33.107Z,101455.41
2022-11-29T10:49:05.748Z,101454.22
2022-11-29T10:51:35.068Z,101448.41
2022-11-29T10:54:21.341Z,101448.59
2022-11-29T10:56:49.663Z,101447.91
2022-11-29T10:59:22.839Z,101446.94
2022-11-29T11:01:51.787Z,101442.47
2022-11-29T11:04:29.508Z,101436.38
2022-11-29T11:07:01.263Z,101436.66
2022-11-29T11:09:36.437Z,101440.84
2022-11-29T11:12:08.557Z,101444.34
2022-11-29T11:14:38.797Z,101445.19
2022-11-29T11:17:22.413Z,101447.66
2022-11-29T11:19:58.863Z,101445.75
2022-11-29T11:22:28.597Z,101445.56
2022-11-29T11:25:06.887Z,101443.34
2022-11-29T11:27:39.772Z,101451.91
2022-11-29T11:30:19.390Z,101446.59
2022-11-29T11:33:08.730Z,101446.66
2022-11-29T11:35:37.308Z,101449.47
2022-11-29T11:38:05.489Z,101458.13
2022-11-29T11:40:35.088Z,101456.44
2022-11-29T11:43:03.812Z,101461.66
2022-11-29T11:45:35.530Z,101457.34
2022-11-29T11:48:12.530Z,101461.94
2022-11-29T11:50:45.772Z,101456.53
2022-11-29T11:53:22.181Z,101460.00
2022-11-29T11:56:00.558Z,101462.63
2022-11-29T11:58:30.314Z,101466.22
2022-11-29T12:01:04.715Z,101464.41
2022-11-29T12:03:44.887Z,101461.91
2022-11-29T12:06:26.241Z,101464.28
2022-11-29T12:08:59.529Z,101473.19
2022-11-29T12:11:35.795Z,101468.72
2022-11-29T12:14:07.115Z,101462.75
2022-11-29T12:16:40.245Z,101472.06
2022-11-29T12:19:16.324Z,101467.75
2022-11-29T12:21:48.407Z,101470.25
2022-11-29T12:24:22.853Z,101464.19
2022-11-29T12:26:57.900Z,101476.38
2022-11-29T12:29:30.724Z,101471.16
2022-11-29T12:32:12.670Z,101475.59
2022-11-29T12:34:54.480Z,101475.53
2022-11-29T12:37:31.043Z,101471.41
2022-11-29T12:40:07.223Z,101473.03
2022-11-29T12:42:47.271Z,101474.13
2022-11-29T12:45:40.159Z,101485.50
2022-11-29T12:48:21.456Z,101483.41
2022-11-29T12:51:01.906Z,101488.84
2022-11-29T12:53:45.273Z,101482.69
2022-11-29T12:56:16.983Z,101495.66
2022-11-29T12:59:13.470Z,101506.50
2022-11-29T13:01:58.712Z,101509.84
2022-11-29T13:04:36.261Z,101505.38
2022-11-29T13:07:13.310Z,101508.91
2022-11-29T13:09:57.008Z,101502.66
2022-11-29T13:12:33.907Z,101515.75
2022-11-29T13:15:07.951Z,101511.34
2022-11-29T13:17:43.539Z,101502.41
2022-11-29T13:20:30.699Z,101515.03
2022-11-29T13:23:06.034Z,101506.63
2022-11-29T13:25:38.844Z,101509.47
2022-11-29T13:28:12.018Z,101511.22
2022-11-29T13:30:41.898Z,101514.38
2022-11-29T13:33:20.462Z,101512.16
2022-11-29T13:35:57.471Z,101515.53
2022-11-29T13:38:32.392Z,101512.09
2022-11-29T13:41:10.923Z,101524.50
2022-11-29T13:43:44.249Z,101519.94
2022-11-29T13:46:23.855Z,101513.66
2022-11-29T13:48:54.113Z,101520.34
2022-11-29T13:51:27.075Z,101524.28
2022-11-29T13:53:57.138Z,101524.47
2022-11-29T13:56:29.672Z,101524.25
2022-11-29T13:58:58.975Z,101522.81
2022-11-29T14:01:29.937Z,101526.41
2022-11-29T14:04:31.422Z,101514.59
2022-11-29T14:07:05.665Z,101533.06
2022-11-29T14:09:44.343Z,101527.84
2022-11-29T14:12:39.764Z,101532.25
2022-11-29T14:15:23.106Z,101527.75
2022-11-29T14:17:55.443Z,101530.69
2022-11-29T14:20:57.787Z,101533.59
2022-11-29T14:23:37.957Z,101534.47
2022-11-29T14:26:28.808Z,101540.66
2022-11-29T14:28:58.698Z,101539.69
2022-11-29T14:31:53.013Z,101540.56
2022-11-29T14:34:37.524Z,101538.22
2022-11-29T14:37:18.327Z,101550.63
2022-11-29T14:39:50.316Z,101547.13
2022-11-29T14:42:20.395Z,101550.50
2022-11-29T14:44:52.111Z,101563.84
2022-11-29T14:47:29.920Z,101560.19
2022-11-29T14:50:03.778Z,101560.19
2022-11-29T14:52:35.961Z,101553.22
2022-11-29T14:55:09.648Z,101561.09
2022-11-29T14:58:14.786Z,101566.38
2022-11-29T15:01:02.701Z,101567.50
2022-11-29T15:03:37.559Z,101567.47
2022-11-29T15:06:14.568Z,101571.03
2022-11-29T15:08:52.503Z,101577.06
2022-11-29T15:11:33.622Z,101576.31
2022-11-29T15:14:05.725Z,101574.47
2022-11-29T15:16:51.693Z,101581.66
2022-11-29T15:19:53.711Z,101579.84
2022-11-29T15:22:27.601Z,101577.16
2022-11-29T15:24:58.895Z,101577.97
2022-11-29T15:27:27.815Z,101585.13
2022-11-29T15:29:56.014Z,101582.41
2022-11-29T15:32:26.303Z,101592.16
2022-11-29T15:34:56.143Z,101590.44
2022-11-29T15:37:40.771Z,101601.63
2022-11-29T15:40:14.073Z,101602.53
2022-11-29T15:42:44.789Z,101608.81
2022-11-29T15:45:27.698Z,101603.38
2022-11-29T15:47:56.133Z,101608.63
2022-11-29T15:50:26.693Z,101613.97
2022-11-29T15:53:01.316Z,101609.56
2022-11-29T15:55:30.510Z,101613.84
2022-11-29T15:58:05.515Z,101618.47
2022-11-29T16:00:37.308Z,101615.84
2022-11-29T16:03:08.575Z,101619.00
2022-11-29T16:05:38.704Z,101614.81
2022-11-29T16:08:15.049Z,101626.94
2022-11-29T16:10:47.447Z,101624.38
2022-11-29T16:13:32.570Z,101625.44
2022-11-29T16:16:07.579Z,101631.53
2022-11-29T16:18:37.180Z,101635.16
2022-11-29T16:21:07.515Z,101632.44
2022-11-29T16:23:38.348Z,101633.41
2022-11-29T16:26:14.767Z,101637.88
2022-11-29T16:28:45.402Z,101639.53
2022-11-29T16:31:18.155Z,101635.81
2022-11-29T16:33:48.962Z,101645.47
2022-11-29T16:36:20.752Z,101647.38
2022-11-29T16:38:52.912Z,101643.97
2022-11-29T16:41:31.240Z,101653.38
2022-11-29T16:44:00.177Z,101651.66
2022-11-29T16:46:33.872Z,101653.53
2022-11-29T16:49:04.812Z,101652.59
2022-11-29T16:51:39.791Z,101648.31
2022-11-29T16:54:24.628Z,101659.66
2022-11-29T16:56:54.245Z,101664.63
2022-11-29T16:59:26.910Z,101658.44
2022-11-29T17:01:56.628Z,101660.41
2022-11-29T17:04:25.482Z,101666.81
2022-11-29T17:06:54.968Z,101660.47
2022-11-29T17:09:26.689Z,101664.88
2022-11-29T17:11:55.497Z,101666.41
2022-11-29T17:14:23.751Z,101671.88
2022-11-29T17:16:52.331Z,101669.13
2022-11-29T17:19:25.467Z,101672.00
2022-11-29T17:21:53.665Z,101672.69
2022-11-29T17:24:23.405Z,101671.03
2022-11-29T17:26:52.948Z,101673.75
2022-11-29T17:29:21.457Z,101676.22
2022-11-29T17:31:50.543Z,101674.34
2022-11-29T17:34:18.887Z,101675.28
2022-11-29T17:36:47.192Z,101685.63
2022-11-29T17:39:19.957Z,101688.25
2022-11-29T17:41:48.411Z,101689.03
2022-11-29T17:44:18.147Z,101687.47
2022-11-29T17:46:46.373Z,101684.06
2022-11-29T17:49:14.482Z,101691.13
2022-11-29T17:51:52.781Z,101695.59
2022-11-29T17:54:22.168Z,101699.78
2022-11-29T17:56:50.586Z,101697.22
2022-11-29T17:59:20.451Z,101695.59
2022-11-29T18:01:48.845Z,101706.09
2022-11-29T18:04:17.052Z,101702.56
2022-11-29T18:06:49.673Z,101701.59
2022-11-29T18:09:19.801Z,101702.47
2022-11-29T18:11:50.297Z,101700.94
2022-11-29T18:14:22.883Z,101701.63
2022-11-29T18:16:51.624Z,101700.25
2022-11-29T18:19:22.208Z,101701.75
2022-11-29T18:21:50.978Z,101702.63
2022-11-29T18:24:19.774Z,101705.25
2022-11-29T18:26:48.174Z,101718.38
2022-11-29T18:29:16.376Z,101708.94
2022-11-29T18:31:46.969Z,101715.03
2022-11-29T18:34:15.851Z,101715.19
2022-11-29T18:36:45.952Z,101721.22
2022-11-29T18:39:16.132Z,101720.38
2022-11-29T18:41:48.065Z,101722.84
2022-11-29T18:44:18.908Z,101724.84
2022-11-29T18:46:48.906Z,101722.06
2022-11-29T18:49:18.413Z,101727.44
2022-11-29T18:51:48.602Z,101725.38
2022-11-29T18:54:18.372Z,101733.47
2022-11-29T18:56:46.746Z,101734.19
2022-11-29T18:59:17.634Z,101739.63
2022-11-29T19:01:49.084Z,101723.94
2022-11-29T19:04:19.235Z,101729.16
2022-11-29T19:06:48.460Z,101727.25
2022-11-29T19:09:19.236Z,101724.00
2022-11-29T19:11:48.664Z,101730.03
2022-11-29T19:14:16.938Z,101729.22
2022-11-29T19:16:48.895Z,101727.47
2022-11-29T19:19:18.620Z,101733.41
2022-11-29T19:21:47.202Z,101737.09
2022-11-29T19:24:17.832Z,101735.41
2022-11-29T19:26:48.960Z,101735.41
2022-11-29T19:29:17.567Z,101736.97
2022-11-29T19:31:46.037Z,101744.19
2022-11-29T19:34:15.546Z,101744.91
2022-11-29T19:36:45.515Z,101749.38
2022-11-29T19:39:15.952Z,101752.97
2022-11-29T19:41:45.543Z,101744.38
2022-11-29T19:44:14.253Z,101743.13
2022-11-29T19:46:44.015Z,101745.88
2022-11-29T19:49:12.853Z,101748.53
2022-11-29T19:51:42.657Z,101749.44
2022-11-29T19:54:11.927Z,101748.53
2022-11-29T19:56:40.697Z,101758.22
2022-11-29T19:59:09.347Z,101756.38
2022-11-29T20:01:41.393Z,101755.34
2022-11-29T20:04:12.244Z,101762.50
2022-11-29T20:06:44.302Z,101760.78
2022-11-29T20:09:14.433Z,101763.41
2022-11-29T20:11:42.688Z,101763.47
2022-11-29T20:14:12.192Z,101756.44
2022-11-29T20:16:40.348Z,101771.22
2022-11-29T20:19:11.672Z,101770.22
2022-11-29T20:21:47.716Z,101766.81
2022-11-29T20:24:17.349Z,101770.41
2022-11-29T20:26:47.958Z,101764.38
2022-11-29T20:29:16.480Z,101774.88
2022-11-29T20:31:50.127Z,101768.75
2022-11-29T20:34:20.013Z,101766.88
2022-11-29T20:37:09.263Z,101770.59
2022-11-29T20:39:43.977Z,101778.34
2022-11-29T20:42:47.310Z,101779.13
2022-11-29T20:45:17.103Z,101777.56
2022-11-29T20:47:53.946Z,101773.03
2022-11-29T20:50:24.286Z,101775.72
2022-11-29T20:53:13.080Z,101777.56
2022-11-29T20:55:46.436Z,101786.34
2022-11-29T20:58:16.334Z,101780.97
2022-11-29T21:00:44.677Z,101775.78
2022-11-29T21:03:14.513Z,101786.22
2022-11-29T21:05:43.317Z,101789.81
2022-11-29T21:08:13.938Z,101781.84
2022-11-29T21:10:42.499Z,101786.22
2022-11-29T21:13:12.604Z,101788.00
2022-11-29T21:15:41.614Z,101787.94
2022-11-29T21:18:20.201Z,101784.56
2022-11-29T21:20:56.616Z,101784.44
2022-11-29T21:23:39.000Z,101795.13
2022-11-29T21:26:14.569Z,101794.09
2022-11-29T21:28:50.147Z,101789.03
2022-11-29T21:31:19.097Z,101800.97
2022-11-29T21:33:47.919Z,101795.06
2022-11-29T21:36:16.288Z,101796.72
2022-11-29T21:38:50.889Z,101798.34
2022-11-29T21:41:22.352Z,101801.97
2022-11-29T21:44:05.910Z,101801.88
2022-11-29T21:46:35.561Z,101805.31
2022-11-29T21:49:03.754Z,101801.88
2022-11-29T21:51:31.887Z,101797.59
2022-11-29T21:54:02.128Z,101801.09
2022-11-29T21:56:30.275Z,101795.84
2022-11-29T21:58:58.525Z,101800.91
2022-11-29T22:01:30.020Z,101803.50
2022-11-29T22:03:58.698Z,101794.88
2022-11-29T22:06:28.252Z,101798.41
2022-11-29T22:08:56.384Z,101797.56
2022-11-29T22:11:31.873Z,101810.56
2022-11-29T22:14:18.126Z,101803.84
2022-11-29T22:16:48.964Z,101802.94
2022-11-29T22:19:19.059Z,101808.97
2022-11-29T22:21:49.524Z,101805.31
2022-11-29T22:24:19.530Z,101810.53
2022-11-29T22:26:49.621Z,101807.09
2022-11-29T22:29:18.183Z,101810.84
2022-11-29T22:31:48.394Z,101814.25
2022-11-29T22:34:16.879Z,101812.38
2022-11-29T22:36:45.045Z,101812.44
2022-11-29T22:39:13.258Z,101820.31
2022-11-29T22:41:42.279Z,101815.06
2022-11-29T22:44:11.752Z,101815.13
2022-11-29T22:46:41.108Z,101803.78
2022-11-29T22:49:09.689Z,101800.84
2022-11-29T22:51:39.253Z,101802.81
2022-11-29T22:54:08.916Z,101809.75
2022-11-29T22:56:39.283Z,101806.34
2022-11-29T22:59:07.678Z,101814.88
2022-11-29T23:01:39.110Z,101808.84
2022-11-29T23:04:11.872Z,101811.38
2022-11-29T23:06:42.855Z,101816.69
2022-11-29T23:09:15.761Z,101819.50
2022-11-29T23:11:45.234Z,101808.91
2022-11-29T23:14:13.981Z,101814.03
2022-11-29T23:16:43.551Z,101817.56
2022-11-29T23:19:11.803Z,101822.81
2022-11-29T23:21:41.490Z,101823.84
2022-11-29T23:24:10.154Z,101815.91
2022-11-29T23:26:40.263Z,101823.03
2022-11-29T23:29:10.161Z,101814.28
2022-11-29T23:31:38.539Z,101815.25
2022-11-29T23:34:08.281Z,101815.13
2022-11-29T23:36:36.554Z,101816.00
2022-11-29T23:39:06.505Z,101817.75
2022-11-29T23:41:35.230Z,101818.78
2022-11-29T23:44:04.490Z,101820.56
2022-11-29T23:46:33.436Z,101815.25
2022-11-29T23:49:01.608Z,101817.97
2022-11-29T23:51:31.102Z,101821.25
2022-11-29T23:53:59.267Z,101820.50
2022-11-29T23:56:30.735Z,101820.53
2022-11-29T23:58:58.857Z,101823.03
